Horsholm, Denmark
Current Conditions -  °F | °C
As of 11:50 PM on Tuesday 25 Nov 2014 (Local Time) from EKCH Reporting Station
Broken Clouds Broken Clouds  
Wind Chill: 43°   Ceiling: 2100
Heat Index: 43°   Visibility: 6mi
Dew Point: 41°   Wind: 2mph
Humidity: 93%   Direction: 260°W
Pressure: 30.33"   Gusts: NA
Location:  55.88°N, 12.5°E
Report Text: EKCH 252250Z 26002KT 9999 BKN021 06/05 Q1027 NOSIG
Loading
Personal Weather Stations






























Interactive Weather Map New forecast layout! Learn more

10-Day Weather Forecast

Advertisements
Track Severe Weather on mobile